createdAt,value
2024-04-23T00:05:16.232Z,8.45
2024-04-23T00:07:43.693Z,9.08
2024-04-23T00:10:11.118Z,9.24
2024-04-23T00:12:38.342Z,9.20
2024-04-23T00:15:06.517Z,8.93
2024-04-23T00:17:33.818Z,8.67
2024-04-23T00:20:01.457Z,8.54
2024-04-23T00:22:28.796Z,8.40
2024-04-23T00:24:56.338Z,8.92
2024-04-23T00:27:23.645Z,9.55
2024-04-23T00:37:29.326Z,8.83
2024-04-23T00:47:34.566Z,9.79
2024-04-23T00:50:02.094Z,9.92
2024-04-23T00:52:29.568Z,9.72
2024-04-23T01:02:40.276Z,8.81
2024-04-23T01:05:07.579Z,9.04
2024-04-23T01:07:34.903Z,9.21
2024-04-23T01:10:02.292Z,9.11
2024-04-23T01:20:13.531Z,8.51
2024-04-23T01:23:15.987Z,8.28
2024-04-23T01:25:45.371Z,9.03
2024-04-23T01:28:13.297Z,9.48
2024-04-23T01:30:40.609Z,9.31
2024-04-23T01:33:08.220Z,9.03
2024-04-23T01:35:35.523Z,8.90
2024-04-23T01:45:17.932Z,8.42
2024-04-23T01:55:29.015Z,8.34
2024-04-23T01:57:56.663Z,8.12
2024-04-23T02:00:24.851Z,7.97
2024-04-23T02:02:52.785Z,7.74
2024-04-23T02:12:58.715Z,8.62
2024-04-23T02:15:25.982Z,8.43
2024-04-23T02:17:53.363Z,8.15
2024-04-23T02:20:21.131Z,7.91
2024-04-23T02:22:48.480Z,7.60
2024-04-23T02:25:15.899Z,8.15
2024-04-23T02:27:43.144Z,8.77
2024-04-23T02:30:11.315Z,8.68
2024-04-23T02:32:38.772Z,8.34
2024-04-23T02:35:06.281Z,8.05
2024-04-23T02:37:33.699Z,7.80
2024-04-23T02:40:03.535Z,7.52
2024-04-23T02:42:32.801Z,7.38
2024-04-23T02:45:00.217Z,7.78
2024-04-23T02:47:27.719Z,8.24
2024-04-23T02:57:39.492Z,7.91
2024-04-23T03:00:08.054Z,7.65
2024-04-23T03:02:35.576Z,7.49
2024-04-23T03:05:04.815Z,8.07
2024-04-23T03:07:32.401Z,8.57
2024-04-23T03:10:00.083Z,8.51
2024-04-23T03:12:27.697Z,8.24
2024-04-23T03:14:55.256Z,8.07
2024-04-23T03:17:22.717Z,7.96
2024-04-23T03:19:50.580Z,7.82
2024-04-23T03:22:17.836Z,7.60
2024-04-23T03:24:45.169Z,7.97
2024-04-23T03:27:12.635Z,8.44
2024-04-23T03:37:24.897Z,8.43
2024-04-23T03:39:52.356Z,8.09
2024-04-23T03:42:19.906Z,7.81
2024-04-23T03:44:48.190Z,8.33
2024-04-23T03:47:15.934Z,8.84
2024-04-23T03:49:43.406Z,8.67
2024-04-23T03:59:50.677Z,8.26
2024-04-23T04:02:36.899Z,8.14
2024-04-23T04:12:45.335Z,9.64
2024-04-23T04:15:12.749Z,9.04
2024-04-23T04:17:40.491Z,8.68
2024-04-23T04:20:08.332Z,8.62
2024-04-23T04:22:35.662Z,8.70
2024-04-23T04:32:46.198Z,8.39
2024-04-23T04:35:13.712Z,9.00
2024-04-23T04:37:41.286Z,9.56
2024-04-23T04:40:08.958Z,9.67
2024-04-23T04:42:36.428Z,9.48
2024-04-23T04:45:05.066Z,9.21
2024-04-23T04:47:32.724Z,8.90
2024-04-23T04:50:00.909Z,8.54
2024-04-23T04:54:41.999Z,8.16
2024-04-23T04:57:09.650Z,8.30
2024-04-23T04:59:37.113Z,8.78
2024-04-23T05:02:04.599Z,9.51
2024-04-23T05:04:31.991Z,9.71
2024-04-23T05:06:59.491Z,9.68
2024-04-23T05:09:26.693Z,9.52
2024-04-23T05:11:53.904Z,9.42
2024-04-23T05:14:21.148Z,9.21
2024-04-23T05:16:48.418Z,9.02
2024-04-23T05:19:15.646Z,8.88
2024-04-23T05:21:42.865Z,8.78
2024-04-23T05:24:10.083Z,9.34
2024-04-23T05:26:37.279Z,9.87
2024-04-23T05:29:04.511Z,10.00
2024-04-23T05:31:50.562Z,9.93
2024-04-23T05:34:17.800Z,9.30
2024-04-23T05:36:45.064Z,9.44
2024-04-23T05:39:12.266Z,9.42
2024-04-23T05:41:39.453Z,9.38
2024-04-23T05:44:06.849Z,9.28
2024-04-23T05:46:34.198Z,9.18
2024-04-23T05:49:38.996Z,9.01
2024-04-23T05:53:03.001Z,9.07
2024-04-23T05:55:49.466Z,8.93
2024-04-23T05:58:16.761Z,9.91
2024-04-23T06:00:44.100Z,10.52
2024-04-23T06:03:11.473Z,10.56
2024-04-23T06:05:38.652Z,10.48
2024-04-23T06:08:06.457Z,10.31
2024-04-23T06:10:33.798Z,10.06
2024-04-23T06:13:00.991Z,9.98
2024-04-23T06:15:28.311Z,9.44
2024-04-23T06:17:55.665Z,9.66
2024-04-23T06:20:22.873Z,9.70
2024-04-23T06:22:53.513Z,9.25
2024-04-23T06:25:21.128Z,9.68
2024-04-23T06:27:48.373Z,9.38
2024-04-23T06:30:16.299Z,9.35
2024-04-23T06:32:43.787Z,9.79
2024-04-23T06:35:11.277Z,9.96
2024-04-23T06:37:38.816Z,10.55
2024-04-23T06:40:09.871Z,11.44
2024-04-23T06:42:38.075Z,11.91
2024-04-23T06:45:05.732Z,11.71
2024-04-23T06:47:34.179Z,11.51
2024-04-23T06:50:01.721Z,12.13
2024-04-23T06:52:29.328Z,12.54
2024-04-23T06:54:56.598Z,12.27
2024-04-23T06:57:23.794Z,10.85
2024-04-23T06:59:51.039Z,11.48
2024-04-23T07:02:18.692Z,11.24
2024-04-23T07:04:46.282Z,11.48
2024-04-23T07:07:13.555Z,11.29
2024-04-23T07:09:40.875Z,10.62
2024-04-23T07:12:08.305Z,11.52
2024-04-23T07:14:35.710Z,11.05
2024-04-23T07:17:03.195Z,10.58
2024-04-23T07:19:30.569Z,11.67
2024-04-23T07:21:57.797Z,12.01
2024-04-23T07:24:24.993Z,12.58
2024-04-23T07:26:54.633Z,13.01
2024-04-23T07:29:21.918Z,12.89
2024-04-23T07:31:49.254Z,12.98
2024-04-23T07:34:16.609Z,12.60
2024-04-23T07:36:46.649Z,12.40
2024-04-23T07:39:14.940Z,12.69
2024-04-23T07:41:42.266Z,12.80
2024-04-23T07:44:10.004Z,12.29
2024-04-23T07:46:37.619Z,12.69
2024-04-23T07:49:04.908Z,12.84
2024-04-23T07:51:33.630Z,12.90
2024-04-23T07:54:00.985Z,12.83
2024-04-23T07:56:28.191Z,12.90
2024-04-23T07:58:55.405Z,12.93
2024-04-23T08:01:22.596Z,12.91
2024-04-23T08:03:50.022Z,12.84
2024-04-23T08:06:17.279Z,12.88
2024-04-23T08:08:44.684Z,13.14
2024-04-23T08:11:12.148Z,13.15
2024-04-23T08:13:40.634Z,13.47
2024-04-23T08:16:08.420Z,13.32
2024-04-23T08:18:36.018Z,13.19
2024-04-23T08:21:07.069Z,13.08
2024-04-23T08:23:34.543Z,12.86
2024-04-23T08:26:09.869Z,12.79
2024-04-23T08:28:37.259Z,12.62
2024-04-23T08:31:04.959Z,12.54
2024-04-23T08:33:32.881Z,12.68
2024-04-23T08:36:00.088Z,12.65
2024-04-23T08:38:28.301Z,12.74
2024-04-23T08:40:56.587Z,12.76
2024-04-23T08:43:27.298Z,12.80
2024-04-23T08:45:55.804Z,12.81
2024-04-23T08:48:23.047Z,12.83
2024-04-23T08:50:50.294Z,12.86
2024-04-23T08:53:17.502Z,12.93
2024-04-23T08:55:45.463Z,13.03
2024-04-23T08:58:12.694Z,12.95
2024-04-23T09:00:49.185Z,13.13
2024-04-23T09:03:20.607Z,13.33
2024-04-23T09:05:47.802Z,13.31
2024-04-23T09:08:16.662Z,13.34
2024-04-23T09:10:44.943Z,13.03
2024-04-23T09:13:12.977Z,13.11
2024-04-23T09:15:40.413Z,13.28
2024-04-23T09:18:08.407Z,13.20
2024-04-23T09:20:35.764Z,13.40
2024-04-23T09:23:03.131Z,13.62
2024-04-23T09:25:35.505Z,13.91
2024-04-23T09:28:03.319Z,14.23
2024-04-23T09:30:31.221Z,14.46
2024-04-23T09:33:03.725Z,14.73
2024-04-23T09:35:31.166Z,15.24
2024-04-23T09:37:58.404Z,15.69
2024-04-23T09:40:25.807Z,16.24
2024-04-23T09:42:56.163Z,16.52
2024-04-23T09:45:26.298Z,16.69
2024-04-23T09:47:53.600Z,16.78
2024-04-23T09:50:21.217Z,16.51
2024-04-23T09:52:48.962Z,16.62
2024-04-23T09:55:17.487Z,16.56
2024-04-23T09:57:45.291Z,15.96
2024-04-23T10:00:12.851Z,14.71
2024-04-23T10:02:40.581Z,14.19
2024-04-23T10:05:11.484Z,14.58
2024-04-23T10:07:58.100Z,14.71
2024-04-23T10:10:30.889Z,14.97
2024-04-23T10:12:58.395Z,14.71
2024-04-23T10:15:30.510Z,14.74
2024-04-23T10:18:05.187Z,14.68
2024-04-23T10:20:39.130Z,14.49
2024-04-23T10:23:07.017Z,14.37
2024-04-23T10:25:37.629Z,14.13
2024-04-23T10:28:05.497Z,13.82
2024-04-23T10:30:32.936Z,13.59
2024-04-23T10:33:00.441Z,13.44
2024-04-23T10:35:27.858Z,13.30
2024-04-23T10:37:55.233Z,13.20
2024-04-23T10:40:22.785Z,13.25
2024-04-23T10:42:50.202Z,13.25
2024-04-23T10:45:17.657Z,13.54
2024-04-23T10:47:53.522Z,13.88
2024-04-23T10:50:29.983Z,14.15
2024-04-23T10:52:57.892Z,14.19
2024-04-23T10:55:26.290Z,14.08
2024-04-23T10:57:57.494Z,14.26
2024-04-23T11:00:33.116Z,14.63
2024-04-23T11:03:00.778Z,15.20
2024-04-23T11:05:32.310Z,15.51
2024-04-23T11:08:07.888Z,15.69
2024-04-23T11:10:50.458Z,15.59
2024-04-23T11:13:28.756Z,15.54
2024-04-23T11:16:01.807Z,15.43
2024-04-23T11:18:40.076Z,15.37
2024-04-23T11:21:10.209Z,15.30
2024-04-23T11:23:43.781Z,15.33
2024-04-23T11:26:14.156Z,15.36
2024-04-23T11:28:43.957Z,15.41
2024-04-23T11:31:14.076Z,15.57
2024-04-23T11:33:44.352Z,15.67
2024-04-23T11:36:14.064Z,15.88
2024-04-23T11:38:44.770Z,16.08
2024-04-23T11:41:19.280Z,16.33
2024-04-23T11:43:49.248Z,16.44
2024-04-23T11:46:19.422Z,16.64
2024-04-23T11:48:49.844Z,16.45
2024-04-23T11:51:19.970Z,16.20
2024-04-23T11:53:50.791Z,16.29
2024-04-23T11:56:21.788Z,16.41
2024-04-23T11:58:53.815Z,16.37
2024-04-23T12:01:24.786Z,16.29
2024-04-23T12:03:54.820Z,16.13
2024-04-23T12:06:25.240Z,16.14
2024-04-23T12:08:55.868Z,16.27
2024-04-23T12:18:59.043Z,16.55
2024-04-23T12:21:26.405Z,16.85
2024-04-23T12:23:56.658Z,16.95
2024-04-23T12:26:24.688Z,16.94
2024-04-23T12:28:55.193Z,17.18
2024-04-23T12:31:26.673Z,17.45
2024-04-23T12:34:00.600Z,17.23
2024-04-23T12:36:28.453Z,17.11
2024-04-23T12:38:55.903Z,16.95
2024-04-23T12:41:25.197Z,16.78
2024-04-23T12:43:52.703Z,16.55
2024-04-23T12:46:20.134Z,16.46
2024-04-23T12:48:50.618Z,16.28
2024-04-23T12:51:18.000Z,16.24
2024-04-23T12:53:45.359Z,16.14
2024-04-23T12:56:13.154Z,16.10
2024-04-23T12:58:40.712Z,15.85
2024-04-23T13:01:09.421Z,15.63
2024-04-23T13:03:36.949Z,15.47
2024-04-23T13:06:04.508Z,15.26
2024-04-23T13:08:35.666Z,15.16
2024-04-23T13:11:03.268Z,15.04
2024-04-23T13:13:30.964Z,14.86
2024-04-23T13:15:58.623Z,14.70
2024-04-23T13:18:26.069Z,14.76
2024-04-23T13:20:53.671Z,14.85
2024-04-23T13:23:21.225Z,14.91
2024-04-23T13:25:48.592Z,14.89
2024-04-23T13:28:15.990Z,14.91
2024-04-23T13:30:43.368Z,14.89
2024-04-23T13:33:10.773Z,14.83
2024-04-23T13:35:38.204Z,14.77
2024-04-23T13:38:05.536Z,14.69
2024-04-23T13:40:33.030Z,14.66
2024-04-23T13:43:00.357Z,14.58
2024-04-23T13:45:27.691Z,14.43
2024-04-23T13:47:55.128Z,14.23
2024-04-23T13:50:22.609Z,14.14
2024-04-23T13:52:50.311Z,14.09
2024-04-23T13:55:17.872Z,14.16
2024-04-23T13:57:45.187Z,14.22
2024-04-23T14:00:14.609Z,14.30
2024-04-23T14:02:42.181Z,14.41
2024-04-23T14:05:09.704Z,14.47
2024-04-23T14:07:39.686Z,14.52
2024-04-23T14:10:07.483Z,14.62
2024-04-23T14:12:38.083Z,14.71
2024-04-23T14:15:06.128Z,14.74
2024-04-23T14:17:33.456Z,14.70
2024-04-23T14:20:01.045Z,14.66
2024-04-23T14:22:28.455Z,14.51
2024-04-23T14:24:56.751Z,14.46
2024-04-23T14:27:24.110Z,14.54
2024-04-23T14:29:51.495Z,14.61
2024-04-23T14:32:22.832Z,14.52
2024-04-23T14:34:50.878Z,14.56
2024-04-23T14:37:18.314Z,14.45
2024-04-23T14:39:45.677Z,14.36
2024-04-23T14:42:13.029Z,14.36
2024-04-23T14:44:40.380Z,14.33
2024-04-23T14:47:09.391Z,14.23
2024-04-23T14:49:36.863Z,14.18
2024-04-23T14:52:04.686Z,14.16
2024-04-23T14:54:32.160Z,14.15
2024-04-23T14:56:59.438Z,14.16
2024-04-23T14:59:26.867Z,14.20
2024-04-23T15:01:56.313Z,14.20
2024-04-23T15:04:23.749Z,14.25
2024-04-23T15:06:51.182Z,14.33
2024-04-23T15:09:18.564Z,14.37
2024-04-23T15:11:46.837Z,14.43
2024-04-23T15:14:17.828Z,14.39
2024-04-23T15:16:45.865Z,14.31
2024-04-23T15:19:13.380Z,14.33
2024-04-23T15:21:40.621Z,14.38
2024-04-23T15:24:07.821Z,14.41
2024-04-23T15:26:35.007Z,14.43
2024-04-23T15:29:02.252Z,14.41
2024-04-23T15:31:29.427Z,14.36
2024-04-23T15:33:56.691Z,14.28
2024-04-23T15:36:29.444Z,13.97
2024-04-23T15:38:58.506Z,13.99
2024-04-23T15:41:25.791Z,14.03
2024-04-23T15:43:53.359Z,14.03
2024-04-23T15:46:26.885Z,13.82
2024-04-23T15:48:58.244Z,13.74
2024-04-23T15:51:25.607Z,13.85
2024-04-23T15:53:52.973Z,13.99
2024-04-23T15:56:20.329Z,14.05
2024-04-23T15:58:47.593Z,13.95
2024-04-23T16:01:14.862Z,13.87
2024-04-23T16:03:42.514Z,13.88
2024-04-23T16:06:17.394Z,13.96
2024-04-23T16:08:45.000Z,13.82
2024-04-23T16:11:12.335Z,13.78
2024-04-23T16:13:39.977Z,13.60
2024-04-23T16:16:07.305Z,13.79
2024-04-23T16:18:36.846Z,13.70
2024-04-23T16:21:07.459Z,14.10
2024-04-23T16:23:35.804Z,14.44
2024-04-23T16:26:04.388Z,14.70
2024-04-23T16:28:31.634Z,14.65
2024-04-23T16:31:06.743Z,14.38
2024-04-23T16:33:34.930Z,14.04
2024-04-23T16:36:06.348Z,13.95
2024-04-23T16:38:37.492Z,13.81
2024-04-23T16:41:05.029Z,13.72
2024-04-23T16:43:32.413Z,13.65
2024-04-23T16:46:04.022Z,13.41
2024-04-23T16:48:32.727Z,13.37
2024-04-23T16:51:00.075Z,13.22
2024-04-23T16:53:29.174Z,13.32
2024-04-23T16:55:57.094Z,13.13
2024-04-23T16:58:24.324Z,12.95
2024-04-23T17:00:51.600Z,13.35
2024-04-23T17:03:18.976Z,13.82
2024-04-23T17:05:47.022Z,13.34
2024-04-23T17:08:14.411Z,13.22
2024-04-23T17:10:46.028Z,13.45
2024-04-23T17:13:14.424Z,13.19
2024-04-23T17:15:43.404Z,12.99
2024-04-23T17:18:10.804Z,12.92
2024-04-23T17:20:38.129Z,12.75
2024-04-23T17:23:05.446Z,12.70
2024-04-23T17:25:36.695Z,12.64
2024-04-23T17:28:04.505Z,12.37
2024-04-23T17:30:31.737Z,12.87
2024-04-23T17:32:59.242Z,13.63
2024-04-23T17:35:26.606Z,13.84
2024-04-23T17:37:53.816Z,13.67
2024-04-23T17:40:21.038Z,13.28
2024-04-23T17:42:50.582Z,13.12
2024-04-23T17:45:17.817Z,12.94
2024-04-23T17:47:45.211Z,12.74
2024-04-23T17:50:13.056Z,12.47
2024-04-23T17:52:40.300Z,12.46
2024-04-23T17:55:08.387Z,12.24
2024-04-23T17:57:35.880Z,12.82
2024-04-23T18:00:06.192Z,13.25
2024-04-23T18:02:40.061Z,13.57
2024-04-23T18:05:07.964Z,13.62
2024-04-23T18:07:35.299Z,13.45
2024-04-23T18:10:02.821Z,13.27
2024-04-23T18:12:30.054Z,13.00
2024-04-23T18:14:58.004Z,12.82
2024-04-23T18:17:25.562Z,12.55
2024-04-23T18:19:52.959Z,12.51
2024-04-23T18:22:20.443Z,12.06
2024-04-23T18:24:47.676Z,12.79
2024-04-23T18:27:16.698Z,13.36
2024-04-23T18:29:43.921Z,13.60
2024-04-23T18:32:11.410Z,13.29
2024-04-23T18:34:38.812Z,13.06
2024-04-23T18:37:06.049Z,12.84
2024-04-23T18:39:33.375Z,12.70
2024-04-23T18:42:01.014Z,12.58
2024-04-23T18:44:28.254Z,12.26
2024-04-23T18:46:56.031Z,11.96
2024-04-23T18:49:24.289Z,12.62
2024-04-23T18:51:52.054Z,13.28
2024-04-23T18:54:19.378Z,13.36
2024-04-23T18:56:46.627Z,12.83
2024-04-23T18:59:13.949Z,12.60
2024-04-23T19:01:41.420Z,12.40
2024-04-23T19:04:08.701Z,12.33
2024-04-23T19:06:35.969Z,12.19
2024-04-23T19:09:03.353Z,12.05
2024-04-23T19:11:32.471Z,11.84
2024-04-23T19:14:10.739Z,12.46
2024-04-23T19:16:45.524Z,13.10
2024-04-23T19:19:13.075Z,13.12
2024-04-23T19:21:40.445Z,13.04
2024-04-23T19:24:07.897Z,12.91
2024-04-23T19:26:35.117Z,12.68
2024-04-23T19:29:02.390Z,12.50
2024-04-23T19:31:29.780Z,12.16
2024-04-23T19:33:57.016Z,12.01
2024-04-23T19:36:26.559Z,12.52
2024-04-23T19:38:53.832Z,13.06
2024-04-23T19:41:21.312Z,13.21
2024-04-23T19:43:52.951Z,12.95
2024-04-23T19:46:23.936Z,12.78
2024-04-23T19:48:51.422Z,12.60
2024-04-23T19:51:21.352Z,12.34
2024-04-23T19:53:51.651Z,12.20
2024-04-23T19:56:34.651Z,11.91
2024-04-23T19:59:03.756Z,12.74
2024-04-23T20:01:38.967Z,13.26
2024-04-23T20:04:06.304Z,13.18
2024-04-23T20:06:33.947Z,13.05
2024-04-23T20:09:02.695Z,12.81
2024-04-23T20:11:30.134Z,12.69
2024-04-23T20:13:57.784Z,12.41
2024-04-23T20:16:25.088Z,12.20
2024-04-23T20:18:54.591Z,12.04
2024-04-23T20:21:21.913Z,12.62
2024-04-23T20:23:55.809Z,13.03
2024-04-23T20:26:24.106Z,12.95
2024-04-23T20:28:52.936Z,12.85
2024-04-23T20:31:20.247Z,12.61
2024-04-23T20:33:47.526Z,12.41
2024-04-23T20:36:14.891Z,12.21
2024-04-23T20:38:42.887Z,12.03
2024-04-23T20:41:10.349Z,11.99
2024-04-23T20:43:37.868Z,12.55
2024-04-23T20:46:08.356Z,13.09
2024-04-23T20:48:35.994Z,13.09
2024-04-23T20:51:06.534Z,12.87
2024-04-23T20:53:33.785Z,12.62
2024-04-23T20:56:08.320Z,12.54
2024-04-23T20:58:35.817Z,12.32
2024-04-23T21:01:09.779Z,12.22
2024-04-23T21:03:37.600Z,12.78
2024-04-23T21:06:09.836Z,13.18
2024-04-23T21:08:38.311Z,13.09
2024-04-23T21:11:15.913Z,12.99
2024-04-23T21:13:46.892Z,12.76
2024-04-23T21:16:14.568Z,12.54
2024-04-23T21:18:42.454Z,12.46
2024-04-23T21:21:09.753Z,12.29
2024-04-23T21:23:37.129Z,12.56
2024-04-23T21:26:04.664Z,13.11
2024-04-23T21:28:31.980Z,13.26
2024-04-23T21:31:02.361Z,13.07
2024-04-23T21:33:29.687Z,12.86
2024-04-23T21:36:08.272Z,12.72
2024-04-23T21:38:35.972Z,12.54
2024-04-23T21:41:07.243Z,12.43
2024-04-23T21:43:35.376Z,12.54
2024-04-23T21:46:08.975Z,13.12
2024-04-23T21:48:36.568Z,13.32
2024-04-23T21:51:14.673Z,13.03
2024-04-23T21:53:42.097Z,12.95
2024-04-23T21:56:09.958Z,12.81
2024-04-23T21:58:37.765Z,12.64
2024-04-23T22:01:15.160Z,12.44
2024-04-23T22:03:42.851Z,12.69
2024-04-23T22:06:10.969Z,13.11
2024-04-23T22:08:38.641Z,13.19
2024-04-23T22:11:07.848Z,13.12
2024-04-23T22:13:38.289Z,12.97
2024-04-23T22:16:08.673Z,12.76
2024-04-23T22:18:38.215Z,12.57
2024-04-23T22:21:08.306Z,12.38
2024-04-23T22:23:37.926Z,12.95
2024-04-23T22:26:07.779Z,13.33
2024-04-23T22:28:36.844Z,13.34
2024-04-23T22:31:07.311Z,13.18
2024-04-23T22:33:37.888Z,13.00
2024-04-23T22:36:07.894Z,12.79
2024-04-23T22:38:38.355Z,12.59
2024-04-23T22:41:08.435Z,12.44
2024-04-23T22:43:37.800Z,13.04
2024-04-23T22:46:07.763Z,13.34
2024-04-23T22:48:37.942Z,13.28
2024-04-23T22:51:07.035Z,13.13
2024-04-23T22:53:36.694Z,12.91
2024-04-23T22:56:05.862Z,12.65
2024-04-23T22:58:36.395Z,12.39
2024-04-23T23:01:06.438Z,12.46
2024-04-23T23:03:36.426Z,13.01
2024-04-23T23:06:06.009Z,13.13
2024-04-23T23:08:35.792Z,12.95
2024-04-23T23:17:23.337Z,12.20
2024-04-23T23:26:06.118Z,12.55
2024-04-23T23:28:33.417Z,12.26
2024-04-23T23:31:00.762Z,11.92
2024-04-23T23:33:28.326Z,12.27
2024-04-23T23:35:55.783Z,12.61
2024-04-23T23:45:54.411Z,11.89
2024-04-23T23:48:22.853Z,12.43
2024-04-23T23:50:50.250Z,12.65
